sensor_id;sensor_type;location;lat;lon;timestamp;P1;durP1;ratioP1;P2;durP2;ratioP2
35612;SDS011;22054;51.646;7.078;2023-07-16T00:02:07;2.85;;;2.75;;
35612;SDS011;22054;51.646;7.078;2023-07-16T00:04:33;3.60;;;3.50;;
35612;SDS011;22054;51.646;7.078;2023-07-16T00:06:59;3.72;;;3.63;;
35612;SDS011;22054;51.646;7.078;2023-07-16T00:09:28;3.72;;;3.63;;
35612;SDS011;22054;51.646;7.078;2023-07-16T00:11:56;3.22;;;3.13;;
35612;SDS011;22054;51.646;7.078;2023-07-16T00:14:22;2.72;;;2.63;;
35612;SDS011;22054;51.646;7.078;2023-07-16T00:16:48;2.97;;;2.88;;
35612;SDS011;22054;51.646;7.078;2023-07-16T00:19:14;3.42;;;3.33;;
35612;SDS011;22054;51.646;7.078;2023-07-16T00:21:40;3.50;;;3.40;;
35612;SDS011;22054;51.646;7.078;2023-07-16T00:24:06;4.90;;;4.70;;
35612;SDS011;22054;51.646;7.078;2023-07-16T00:26:31;5.95;;;5.75;;
35612;SDS011;22054;51.646;7.078;2023-07-16T00:28:57;5.97;;;5.78;;
35612;SDS011;22054;51.646;7.078;2023-07-16T00:31:23;4.40;;;4.20;;
35612;SDS011;22054;51.646;7.078;2023-07-16T00:33:49;4.63;;;4.43;;
35612;SDS011;22054;51.646;7.078;2023-07-16T00:36:14;4.45;;;4.25;;
35612;SDS011;22054;51.646;7.078;2023-07-16T00:38:40;4.50;;;4.30;;
35612;SDS011;22054;51.646;7.078;2023-07-16T00:41:07;4.30;;;4.10;;
35612;SDS011;22054;51.646;7.078;2023-07-16T00:43:33;3.75;;;3.65;;
35612;SDS011;22054;51.646;7.078;2023-07-16T00:45:59;3.90;;;3.75;;
35612;SDS011;22054;51.646;7.078;2023-07-16T00:48:25;4.35;;;4.15;;
35612;SDS011;22054;51.646;7.078;2023-07-16T00:50:52;3.80;;;3.70;;
35612;SDS011;22054;51.646;7.078;2023-07-16T00:53:19;3.92;;;3.80;;
35612;SDS011;22054;51.646;7.078;2023-07-16T00:55:45;3.83;;;3.72;;
35612;SDS011;22054;51.646;7.078;2023-07-16T00:58:11;3.53;;;3.42;;
35612;SDS011;22054;51.646;7.078;2023-07-16T01:00:37;3.88;;;3.75;;
35612;SDS011;22054;51.646;7.078;2023-07-16T01:03:08;3.60;;;3.50;;
35612;SDS011;22054;51.646;7.078;2023-07-16T01:05:51;4.25;;;4.05;;
35612;SDS011;22054;51.646;7.078;2023-07-16T01:09:17;4.63;;;4.43;;
35612;SDS011;22054;51.646;7.078;2023-07-16T01:11:41;4.50;;;4.30;;
35612;SDS011;22054;51.646;7.078;2023-07-16T01:14:09;4.38;;;4.18;;
35612;SDS011;22054;51.646;7.078;2023-07-16T01:16:36;4.00;;;3.88;;
35612;SDS011;22054;51.646;7.078;2023-07-16T01:19:02;3.60;;;3.50;;
35612;SDS011;22054;51.646;7.078;2023-07-16T01:21:31;4.13;;;3.92;;
35612;SDS011;22054;51.646;7.078;2023-07-16T01:30:15;3.88;;;3.78;;
35612;SDS011;22054;51.646;7.078;2023-07-16T01:32:44;4.20;;;4.00;;
35612;SDS011;22054;51.646;7.078;2023-07-16T01:35:11;4.15;;;3.95;;
35612;SDS011;22054;51.646;7.078;2023-07-16T01:37:38;3.88;;;3.78;;
35612;SDS011;22054;51.646;7.078;2023-07-16T01:40:07;3.63;;;3.53;;
35612;SDS011;22054;51.646;7.078;2023-07-16T01:42:34;3.33;;;3.22;;
35612;SDS011;22054;51.646;7.078;2023-07-16T01:45:00;3.17;;;3.08;;
35612;SDS011;22054;51.646;7.078;2023-07-16T01:47:31;4.10;;;3.90;;
35612;SDS011;22054;51.646;7.078;2023-07-16T01:50:09;4.13;;;3.92;;
35612;SDS011;22054;51.646;7.078;2023-07-16T01:52:35;4.30;;;4.10;;
35612;SDS011;22054;51.646;7.078;2023-07-16T01:55:01;3.38;;;3.28;;
35612;SDS011;22054;51.646;7.078;2023-07-16T01:57:27;1.73;;;1.73;;
35612;SDS011;22054;51.646;7.078;2023-07-16T01:59:53;1.63;;;1.63;;
35612;SDS011;22054;51.646;7.078;2023-07-16T02:02:18;1.83;;;1.80;;
35612;SDS011;22054;51.646;7.078;2023-07-16T02:04:44;2.50;;;2.40;;
35612;SDS011;22054;51.646;7.078;2023-07-16T02:07:10;2.03;;;1.92;;
35612;SDS011;22054;51.646;7.078;2023-07-16T02:09:36;2.10;;;2.00;;
35612;SDS011;22054;51.646;7.078;2023-07-16T02:12:01;2.30;;;2.20;;
35612;SDS011;22054;51.646;7.078;2023-07-16T02:14:27;2.13;;;2.03;;
35612;SDS011;22054;51.646;7.078;2023-07-16T02:16:53;2.03;;;1.92;;
35612;SDS011;22054;51.646;7.078;2023-07-16T02:19:19;2.17;;;2.08;;
35612;SDS011;22054;51.646;7.078;2023-07-16T02:21:44;1.50;;;1.50;;
35612;SDS011;22054;51.646;7.078;2023-07-16T02:24:10;1.70;;;1.70;;
35612;SDS011;22054;51.646;7.078;2023-07-16T02:26:36;2.00;;;1.90;;
35612;SDS011;22054;51.646;7.078;2023-07-16T02:29:02;2.00;;;1.90;;
35612;SDS011;22054;51.646;7.078;2023-07-16T02:31:27;2.00;;;1.90;;
35612;SDS011;22054;51.646;7.078;2023-07-16T02:33:53;2.17;;;2.08;;
35612;SDS011;22054;51.646;7.078;2023-07-16T02:36:19;2.10;;;2.00;;
35612;SDS011;22054;51.646;7.078;2023-07-16T02:38:44;2.30;;;2.20;;
35612;SDS011;22054;51.646;7.078;2023-07-16T02:41:10;2.72;;;2.63;;
35612;SDS011;22054;51.646;7.078;2023-07-16T02:43:36;2.15;;;2.05;;
35612;SDS011;22054;51.646;7.078;2023-07-16T02:46:02;2.05;;;1.95;;
35612;SDS011;22054;51.646;7.078;2023-07-16T02:48:28;1.60;;;1.60;;
35612;SDS011;22054;51.646;7.078;2023-07-16T02:50:53;1.50;;;1.50;;
35612;SDS011;22054;51.646;7.078;2023-07-16T02:53:19;1.00;;;1.00;;
35612;SDS011;22054;51.646;7.078;2023-07-16T02:55:45;0.77;;;0.77;;
35612;SDS011;22054;51.646;7.078;2023-07-16T02:58:11;1.00;;;1.00;;
35612;SDS011;22054;51.646;7.078;2023-07-16T03:00:37;1.00;;;1.00;;
35612;SDS011;22054;51.646;7.078;2023-07-16T03:03:03;1.08;;;1.08;;
35612;SDS011;22054;51.646;7.078;2023-07-16T03:05:29;1.60;;;1.60;;
35612;SDS011;22054;51.646;7.078;2023-07-16T03:07:54;1.38;;;1.38;;
35612;SDS011;22054;51.646;7.078;2023-07-16T03:10:20;2.10;;;2.00;;
35612;SDS011;22054;51.646;7.078;2023-07-16T03:12:47;1.88;;;1.83;;
35612;SDS011;22054;51.646;7.078;2023-07-16T03:15:13;2.00;;;1.90;;
35612;SDS011;22054;51.646;7.078;2023-07-16T03:17:38;1.80;;;1.80;;
35612;SDS011;22054;51.646;7.078;2023-07-16T03:20:04;2.40;;;2.30;;
35612;SDS011;22054;51.646;7.078;2023-07-16T03:22:31;1.20;;;1.20;;
35612;SDS011;22054;51.646;7.078;2023-07-16T03:24:57;1.23;;;1.23;;
35612;SDS011;22054;51.646;7.078;2023-07-16T03:27:23;1.08;;;1.08;;
35612;SDS011;22054;51.646;7.078;2023-07-16T03:29:48;1.20;;;1.20;;
35612;SDS011;22054;51.646;7.078;2023-07-16T03:32:14;1.00;;;1.00;;
35612;SDS011;22054;51.646;7.078;2023-07-16T03:34:40;1.27;;;1.27;;
35612;SDS011;22054;51.646;7.078;2023-07-16T03:37:06;1.42;;;1.42;;
35612;SDS011;22054;51.646;7.078;2023-07-16T03:39:31;1.40;;;1.40;;
35612;SDS011;22054;51.646;7.078;2023-07-16T03:41:57;1.30;;;1.30;;
35612;SDS011;22054;51.646;7.078;2023-07-16T03:44:23;1.20;;;1.20;;
35612;SDS011;22054;51.646;7.078;2023-07-16T03:46:49;2.00;;;1.90;;
35612;SDS011;22054;51.646;7.078;2023-07-16T03:49:14;1.70;;;1.70;;
35612;SDS011;22054;51.646;7.078;2023-07-16T03:51:40;1.80;;;1.80;;
35612;SDS011;22054;51.646;7.078;2023-07-16T03:54:06;1.55;;;1.55;;
35612;SDS011;22054;51.646;7.078;2023-07-16T03:56:32;2.13;;;2.03;;
35612;SDS011;22054;51.646;7.078;2023-07-16T03:58:57;1.70;;;1.70;;
35612;SDS011;22054;51.646;7.078;2023-07-16T04:01:23;1.83;;;1.80;;
35612;SDS011;22054;51.646;7.078;2023-07-16T04:03:49;1.50;;;1.50;;
35612;SDS011;22054;51.646;7.078;2023-07-16T04:06:15;1.60;;;1.60;;
35612;SDS011;22054;51.646;7.078;2023-07-16T04:08:41;1.70;;;1.70;;
35612;SDS011;22054;51.646;7.078;2023-07-16T04:11:07;1.70;;;1.70;;
35612;SDS011;22054;51.646;7.078;2023-07-16T04:13:33;1.30;;;1.30;;
35612;SDS011;22054;51.646;7.078;2023-07-16T04:15:59;1.30;;;1.30;;
35612;SDS011;22054;51.646;7.078;2023-07-16T04:18:25;1.20;;;1.20;;
35612;SDS011;22054;51.646;7.078;2023-07-16T04:20:51;1.20;;;1.20;;
35612;SDS011;22054;51.646;7.078;2023-07-16T04:23:17;1.20;;;1.20;;
35612;SDS011;22054;51.646;7.078;2023-07-16T04:25:43;0.90;;;0.90;;
35612;SDS011;22054;51.646;7.078;2023-07-16T04:28:10;0.85;;;0.85;;
35612;SDS011;22054;51.646;7.078;2023-07-16T04:30:36;0.90;;;0.90;;
35612;SDS011;22054;51.646;7.078;2023-07-16T04:33:02;0.80;;;0.80;;
35612;SDS011;22054;51.646;7.078;2023-07-16T04:35:29;1.08;;;1.08;;
35612;SDS011;22054;51.646;7.078;2023-07-16T04:37:54;1.05;;;1.05;;
35612;SDS011;22054;51.646;7.078;2023-07-16T04:40:20;1.15;;;1.15;;
35612;SDS011;22054;51.646;7.078;2023-07-16T04:42:46;1.20;;;1.20;;
35612;SDS011;22054;51.646;7.078;2023-07-16T04:45:12;1.35;;;1.35;;
35612;SDS011;22054;51.646;7.078;2023-07-16T04:47:38;1.40;;;1.40;;
35612;SDS011;22054;51.646;7.078;2023-07-16T04:50:04;1.40;;;1.40;;
35612;SDS011;22054;51.646;7.078;2023-07-16T04:52:31;1.50;;;1.50;;
35612;SDS011;22054;51.646;7.078;2023-07-16T04:54:56;1.63;;;1.63;;
35612;SDS011;22054;51.646;7.078;2023-07-16T04:57:22;1.20;;;1.20;;
35612;SDS011;22054;51.646;7.078;2023-07-16T04:59:48;1.30;;;1.30;;
35612;SDS011;22054;51.646;7.078;2023-07-16T05:02:14;1.40;;;1.40;;
35612;SDS011;22054;51.646;7.078;2023-07-16T05:04:42;1.50;;;1.50;;
35612;SDS011;22054;51.646;7.078;2023-07-16T05:07:13;1.50;;;1.50;;
35612;SDS011;22054;51.646;7.078;2023-07-16T05:09:41;1.60;;;1.60;;
35612;SDS011;22054;51.646;7.078;2023-07-16T05:12:08;2.00;;;1.90;;
35612;SDS011;22054;51.646;7.078;2023-07-16T05:14:43;1.67;;;1.67;;
35612;SDS011;22054;51.646;7.078;2023-07-16T05:17:13;2.00;;;1.90;;
35612;SDS011;22054;51.646;7.078;2023-07-16T05:19:39;2.20;;;2.10;;
35612;SDS011;22054;51.646;7.078;2023-07-16T05:22:05;2.00;;;1.90;;
35612;SDS011;22054;51.646;7.078;2023-07-16T05:24:32;2.08;;;1.98;;
35612;SDS011;22054;51.646;7.078;2023-07-16T05:26:58;2.05;;;1.95;;
35612;SDS011;22054;51.646;7.078;2023-07-16T05:29:23;1.73;;;1.73;;
35612;SDS011;22054;51.646;7.078;2023-07-16T05:31:49;2.40;;;2.30;;
35612;SDS011;22054;51.646;7.078;2023-07-16T05:34:15;2.15;;;2.05;;
35612;SDS011;22054;51.646;7.078;2023-07-16T05:36:41;2.20;;;2.10;;
35612;SDS011;22054;51.646;7.078;2023-07-16T05:39:11;2.00;;;1.90;;
35612;SDS011;22054;51.646;7.078;2023-07-16T05:41:38;2.17;;;2.08;;
35612;SDS011;22054;51.646;7.078;2023-07-16T05:44:06;2.00;;;1.90;;
35612;SDS011;22054;51.646;7.078;2023-07-16T05:46:32;1.80;;;1.80;;
35612;SDS011;22054;51.646;7.078;2023-07-16T05:48:59;1.70;;;1.70;;
35612;SDS011;22054;51.646;7.078;2023-07-16T05:51:24;1.15;;;1.15;;
35612;SDS011;22054;51.646;7.078;2023-07-16T05:53:50;1.20;;;1.20;;
35612;SDS011;22054;51.646;7.078;2023-07-16T05:56:16;1.50;;;1.50;;
35612;SDS011;22054;51.646;7.078;2023-07-16T05:58:42;1.50;;;1.50;;
35612;SDS011;22054;51.646;7.078;2023-07-16T06:01:08;1.23;;;1.23;;
35612;SDS011;22054;51.646;7.078;2023-07-16T06:03:34;1.10;;;1.10;;
35612;SDS011;22054;51.646;7.078;2023-07-16T06:06:00;1.20;;;1.20;;
35612;SDS011;22054;51.646;7.078;2023-07-16T06:08:26;1.60;;;1.60;;
35612;SDS011;22054;51.646;7.078;2023-07-16T06:10:51;1.60;;;1.60;;
35612;SDS011;22054;51.646;7.078;2023-07-16T06:13:17;1.00;;;1.00;;
35612;SDS011;22054;51.646;7.078;2023-07-16T06:15:43;1.60;;;1.60;;
35612;SDS011;22054;51.646;7.078;2023-07-16T06:18:09;1.70;;;1.70;;
35612;SDS011;22054;51.646;7.078;2023-07-16T06:20:35;1.60;;;1.60;;
35612;SDS011;22054;51.646;7.078;2023-07-16T06:23:01;1.30;;;1.30;;
35612;SDS011;22054;51.646;7.078;2023-07-16T06:25:27;1.40;;;1.40;;
35612;SDS011;22054;51.646;7.078;2023-07-16T06:27:52;1.30;;;1.30;;
35612;SDS011;22054;51.646;7.078;2023-07-16T06:30:18;1.17;;;1.17;;
35612;SDS011;22054;51.646;7.078;2023-07-16T06:32:44;1.35;;;1.35;;
35612;SDS011;22054;51.646;7.078;2023-07-16T06:35:10;1.05;;;1.05;;
35612;SDS011;22054;51.646;7.078;2023-07-16T06:37:35;1.20;;;1.20;;
35612;SDS011;22054;51.646;7.078;2023-07-16T06:40:01;1.20;;;1.20;;
35612;SDS011;22054;51.646;7.078;2023-07-16T06:42:28;1.40;;;1.40;;
35612;SDS011;22054;51.646;7.078;2023-07-16T06:44:54;1.20;;;1.20;;
35612;SDS011;22054;51.646;7.078;2023-07-16T06:47:20;1.30;;;1.30;;
35612;SDS011;22054;51.646;7.078;2023-07-16T06:49:45;1.10;;;1.10;;
35612;SDS011;22054;51.646;7.078;2023-07-16T06:52:23;1.20;;;1.20;;
35612;SDS011;22054;51.646;7.078;2023-07-16T06:54:55;1.40;;;1.40;;
35612;SDS011;22054;51.646;7.078;2023-07-16T06:57:24;0.95;;;0.95;;
35612;SDS011;22054;51.646;7.078;2023-07-16T06:59:50;1.13;;;1.13;;
35612;SDS011;22054;51.646;7.078;2023-07-16T07:02:16;1.00;;;1.00;;
35612;SDS011;22054;51.646;7.078;2023-07-16T07:04:42;1.20;;;1.20;;
35612;SDS011;22054;51.646;7.078;2023-07-16T07:07:08;1.20;;;1.20;;
35612;SDS011;22054;51.646;7.078;2023-07-16T07:09:34;1.13;;;1.13;;
35612;SDS011;22054;51.646;7.078;2023-07-16T07:12:00;1.50;;;1.50;;
35612;SDS011;22054;51.646;7.078;2023-07-16T07:14:26;1.10;;;1.10;;
35612;SDS011;22054;51.646;7.078;2023-07-16T07:16:52;1.10;;;1.10;;
35612;SDS011;22054;51.646;7.078;2023-07-16T07:19:18;1.50;;;1.50;;
35612;SDS011;22054;51.646;7.078;2023-07-16T07:21:44;1.60;;;1.60;;
35612;SDS011;22054;51.646;7.078;2023-07-16T07:24:10;1.77;;;1.77;;
35612;SDS011;22054;51.646;7.078;2023-07-16T07:26:35;1.70;;;1.70;;
35612;SDS011;22054;51.646;7.078;2023-07-16T07:29:01;2.03;;;1.92;;
35612;SDS011;22054;51.646;7.078;2023-07-16T07:31:27;1.70;;;1.70;;
35612;SDS011;22054;51.646;7.078;2023-07-16T07:33:53;1.70;;;1.70;;
35612;SDS011;22054;51.646;7.078;2023-07-16T07:36:19;1.65;;;1.65;;
35612;SDS011;22054;51.646;7.078;2023-07-16T07:38:45;1.92;;;1.83;;
35612;SDS011;22054;51.646;7.078;2023-07-16T07:41:10;1.80;;;1.77;;
35612;SDS011;22054;51.646;7.078;2023-07-16T07:43:37;1.63;;;1.63;;
35612;SDS011;22054;51.646;7.078;2023-07-16T07:46:02;1.40;;;1.40;;
35612;SDS011;22054;51.646;7.078;2023-07-16T07:48:28;1.83;;;1.80;;
35612;SDS011;22054;51.646;7.078;2023-07-16T07:50:54;1.70;;;1.70;;
35612;SDS011;22054;51.646;7.078;2023-07-16T07:53:19;1.30;;;1.30;;
35612;SDS011;22054;51.646;7.078;2023-07-16T07:55:45;1.27;;;1.27;;
35612;SDS011;22054;51.646;7.078;2023-07-16T07:58:11;2.08;;;1.98;;
35612;SDS011;22054;51.646;7.078;2023-07-16T08:00:38;2.00;;;1.90;;
35612;SDS011;22054;51.646;7.078;2023-07-16T08:03:04;2.30;;;2.20;;
35612;SDS011;22054;51.646;7.078;2023-07-16T08:05:29;2.05;;;1.95;;
35612;SDS011;22054;51.646;7.078;2023-07-16T08:07:59;1.60;;;1.60;;
35612;SDS011;22054;51.646;7.078;2023-07-16T08:10:25;2.13;;;2.03;;
35612;SDS011;22054;51.646;7.078;2023-07-16T08:12:51;1.77;;;1.77;;
35612;SDS011;22054;51.646;7.078;2023-07-16T08:15:17;2.30;;;2.20;;
35612;SDS011;22054;51.646;7.078;2023-07-16T08:17:44;1.77;;;1.77;;
35612;SDS011;22054;51.646;7.078;2023-07-16T08:20:10;1.80;;;1.80;;
35612;SDS011;22054;51.646;7.078;2023-07-16T08:22:37;1.70;;;1.70;;
35612;SDS011;22054;51.646;7.078;2023-07-16T08:25:04;1.50;;;1.50;;
35612;SDS011;22054;51.646;7.078;2023-07-16T08:27:31;1.60;;;1.60;;
35612;SDS011;22054;51.646;7.078;2023-07-16T08:29:57;1.50;;;1.50;;
35612;SDS011;22054;51.646;7.078;2023-07-16T08:32:23;1.42;;;1.42;;
35612;SDS011;22054;51.646;7.078;2023-07-16T08:34:49;1.80;;;1.80;;
35612;SDS011;22054;51.646;7.078;2023-07-16T08:37:15;1.77;;;1.77;;
35612;SDS011;22054;51.646;7.078;2023-07-16T08:39:41;1.50;;;1.50;;
35612;SDS011;22054;51.646;7.078;2023-07-16T08:42:08;2.28;;;2.17;;
35612;SDS011;22054;51.646;7.078;2023-07-16T08:44:36;4.30;;;4.10;;
35612;SDS011;22054;51.646;7.078;2023-07-16T08:47:03;3.72;;;3.63;;
35612;SDS011;22054;51.646;7.078;2023-07-16T08:49:31;2.80;;;2.70;;
35612;SDS011;22054;51.646;7.078;2023-07-16T08:51:59;3.20;;;3.10;;
35612;SDS011;22054;51.646;7.078;2023-07-16T08:54:27;3.13;;;3.03;;
35612;SDS011;22054;51.646;7.078;2023-07-16T08:56:53;3.50;;;3.40;;
35612;SDS011;22054;51.646;7.078;2023-07-16T08:59:19;3.38;;;3.28;;
35612;SDS011;22054;51.646;7.078;2023-07-16T09:01:49;2.03;;;1.92;;
35612;SDS011;22054;51.646;7.078;2023-07-16T09:04:15;1.80;;;1.80;;
35612;SDS011;22054;51.646;7.078;2023-07-16T09:06:41;1.83;;;1.80;;
35612;SDS011;22054;51.646;7.078;2023-07-16T09:09:07;1.27;;;1.27;;
35612;SDS011;22054;51.646;7.078;2023-07-16T09:11:33;1.30;;;1.30;;
35612;SDS011;22054;51.646;7.078;2023-07-16T09:14:01;1.60;;;1.60;;
35612;SDS011;22054;51.646;7.078;2023-07-16T09:16:32;2.10;;;2.00;;
35612;SDS011;22054;51.646;7.078;2023-07-16T09:19:05;2.20;;;2.10;;
35612;SDS011;22054;51.646;7.078;2023-07-16T09:21:36;2.80;;;2.70;;
35612;SDS011;22054;51.646;7.078;2023-07-16T09:24:06;2.70;;;2.60;;
35612;SDS011;22054;51.646;7.078;2023-07-16T09:26:33;2.70;;;2.60;;
35612;SDS011;22054;51.646;7.078;2023-07-16T09:29:07;2.28;;;2.17;;
35612;SDS011;22054;51.646;7.078;2023-07-16T09:31:33;2.90;;;2.80;;
35612;SDS011;22054;51.646;7.078;2023-07-16T09:33:59;2.75;;;2.65;;
35612;SDS011;22054;51.646;7.078;2023-07-16T09:36:25;1.20;;;1.20;;
35612;SDS011;22054;51.646;7.078;2023-07-16T09:38:52;4.68;;;4.47;;
35612;SDS011;22054;51.646;7.078;2023-07-16T09:41:20;2.50;;;2.40;;
35612;SDS011;22054;51.646;7.078;2023-07-16T09:43:47;3.33;;;3.22;;
35612;SDS011;22054;51.646;7.078;2023-07-16T09:46:13;2.30;;;2.20;;
35612;SDS011;22054;51.646;7.078;2023-07-16T09:48:39;2.20;;;2.10;;
35612;SDS011;22054;51.646;7.078;2023-07-16T09:51:05;2.33;;;2.22;;
35612;SDS011;22054;51.646;7.078;2023-07-16T09:53:37;2.20;;;2.10;;
35612;SDS011;22054;51.646;7.078;2023-07-16T09:56:08;2.20;;;2.10;;
35612;SDS011;22054;51.646;7.078;2023-07-16T09:58:37;2.38;;;2.28;;
35612;SDS011;22054;51.646;7.078;2023-07-16T10:01:03;2.15;;;2.05;;
35612;SDS011;22054;51.646;7.078;2023-07-16T10:03:30;2.10;;;2.00;;
35612;SDS011;22054;51.646;7.078;2023-07-16T10:06:05;2.20;;;2.10;;
35612;SDS011;22054;51.646;7.078;2023-07-16T10:08:33;2.10;;;2.00;;
35612;SDS011;22054;51.646;7.078;2023-07-16T10:10:59;2.03;;;1.92;;
35612;SDS011;22054;51.646;7.078;2023-07-16T10:13:26;2.10;;;2.00;;
35612;SDS011;22054;51.646;7.078;2023-07-16T10:15:53;1.92;;;1.83;;
35612;SDS011;22054;51.646;7.078;2023-07-16T10:21:09;2.55;;;2.45;;
35612;SDS011;22054;51.646;7.078;2023-07-16T10:23:39;2.30;;;2.20;;
35612;SDS011;22054;51.646;7.078;2023-07-16T10:26:10;2.10;;;2.00;;
35612;SDS011;22054;51.646;7.078;2023-07-16T10:28:38;2.50;;;2.40;;
35612;SDS011;22054;51.646;7.078;2023-07-16T10:31:04;3.22;;;3.13;;
35612;SDS011;22054;51.646;7.078;2023-07-16T10:33:33;3.27;;;3.17;;
35612;SDS011;22054;51.646;7.078;2023-07-16T10:35:59;3.50;;;3.38;;
35612;SDS011;22054;51.646;7.078;2023-07-16T10:38:25;4.70;;;4.50;;
35612;SDS011;22054;51.646;7.078;2023-07-16T10:40:51;4.40;;;4.20;;
35612;SDS011;22054;51.646;7.078;2023-07-16T10:43:17;4.60;;;4.40;;
35612;SDS011;22054;51.646;7.078;2023-07-16T10:45:43;4.60;;;4.40;;
35612;SDS011;22054;51.646;7.078;2023-07-16T10:48:12;4.93;;;4.73;;
35612;SDS011;22054;51.646;7.078;2023-07-16T10:50:40;4.50;;;4.30;;
35612;SDS011;22054;51.646;7.078;2023-07-16T10:53:06;4.40;;;4.20;;
35612;SDS011;22054;51.646;7.078;2023-07-16T10:55:32;3.90;;;3.75;;
35612;SDS011;22054;51.646;7.078;2023-07-16T10:58:03;4.15;;;3.95;;
35612;SDS011;22054;51.646;7.078;2023-07-16T11:00:36;4.20;;;4.00;;
35612;SDS011;22054;51.646;7.078;2023-07-16T11:03:03;4.43;;;4.22;;
35612;SDS011;22054;51.646;7.078;2023-07-16T11:05:29;4.18;;;3.97;;
35612;SDS011;22054;51.646;7.078;2023-07-16T11:07:55;3.70;;;3.60;;
35612;SDS011;22054;51.646;7.078;2023-07-16T11:10:21;4.30;;;4.10;;
35612;SDS011;22054;51.646;7.078;2023-07-16T11:12:51;3.58;;;3.47;;
35612;SDS011;22054;51.646;7.078;2023-07-16T11:15:18;4.60;;;4.40;;
35612;SDS011;22054;51.646;7.078;2023-07-16T11:20:50;0.00;;;0.00;;
35612;SDS011;22054;51.646;7.078;2023-07-16T11:23:17;0.00;;;0.00;;
35612;SDS011;22054;51.646;7.078;2023-07-16T11:25:49;0.00;;;0.00;;
35612;SDS011;22054;51.646;7.078;2023-07-16T11:28:17;0.00;;;0.00;;
35612;SDS011;22054;51.646;7.078;2023-07-16T11:30:43;0.00;;;0.00;;
35612;SDS011;22054;51.646;7.078;2023-07-16T11:33:12;0.00;;;0.00;;
35612;SDS011;22054;51.646;7.078;2023-07-16T11:35:38;0.00;;;0.00;;
35612;SDS011;22054;51.646;7.078;2023-07-16T11:38:06;0.00;;;0.00;;
35612;SDS011;22054;51.646;7.078;2023-07-16T11:40:35;0.00;;;0.00;;
35612;SDS011;22054;51.646;7.078;2023-07-16T11:43:11;0.00;;;0.00;;
35612;SDS011;22054;51.646;7.078;2023-07-16T11:45:37;0.00;;;0.00;;
35612;SDS011;22054;51.646;7.078;2023-07-16T11:48:03;0.00;;;0.00;;
35612;SDS011;22054;51.646;7.078;2023-07-16T11:50:32;0.00;;;0.00;;
35612;SDS011;22054;51.646;7.078;2023-07-16T11:53:01;0.00;;;0.00;;
35612;SDS011;22054;51.646;7.078;2023-07-16T11:55:27;0.00;;;0.00;;
35612;SDS011;22054;51.646;7.078;2023-07-16T12:00:21;0.00;;;0.00;;
35612;SDS011;22054;51.646;7.078;2023-07-16T12:02:47;0.00;;;0.00;;
35612;SDS011;22054;51.646;7.078;2023-07-16T12:05:19;0.00;;;0.00;;
35612;SDS011;22054;51.646;7.078;2023-07-16T12:07:46;0.00;;;0.00;;
35612;SDS011;22054;51.646;7.078;2023-07-16T12:10:12;0.00;;;0.00;;
35612;SDS011;22054;51.646;7.078;2023-07-16T12:12:38;0.00;;;0.00;;
35612;SDS011;22054;51.646;7.078;2023-07-16T12:15:07;4.72;;;4.53;;
35612;SDS011;22054;51.646;7.078;2023-07-16T12:17:34;0.00;;;0.00;;
35612;SDS011;22054;51.646;7.078;2023-07-16T12:20:00;0.20;;;0.20;;
35612;SDS011;22054;51.646;7.078;2023-07-16T12:22:28;0.28;;;0.28;;
35612;SDS011;22054;51.646;7.078;2023-07-16T12:24:54;0.00;;;0.00;;
35612;SDS011;22054;51.646;7.078;2023-07-16T12:27:20;0.00;;;0.00;;
35612;SDS011;22054;51.646;7.078;2023-07-16T12:29:46;0.00;;;0.00;;
35612;SDS011;22054;51.646;7.078;2023-07-16T12:32:13;0.00;;;0.00;;
35612;SDS011;22054;51.646;7.078;2023-07-16T12:34:39;0.00;;;0.00;;
35612;SDS011;22054;51.646;7.078;2023-07-16T12:37:05;0.00;;;0.00;;
35612;SDS011;22054;51.646;7.078;2023-07-16T12:39:32;0.00;;;0.00;;
35612;SDS011;22054;51.646;7.078;2023-07-16T12:41:58;0.00;;;0.00;;
35612;SDS011;22054;51.646;7.078;2023-07-16T12:44:23;0.00;;;0.00;;
35612;SDS011;22054;51.646;7.078;2023-07-16T12:46:49;0.00;;;0.00;;
35612;SDS011;22054;51.646;7.078;2023-07-16T12:49:15;0.00;;;0.00;;
35612;SDS011;22054;51.646;7.078;2023-07-16T12:51:41;0.00;;;0.00;;
35612;SDS011;22054;51.646;7.078;2023-07-16T12:54:07;0.00;;;0.00;;
35612;SDS011;22054;51.646;7.078;2023-07-16T12:56:33;0.00;;;0.00;;
35612;SDS011;22054;51.646;7.078;2023-07-16T12:58:58;1.40;;;1.40;;
35612;SDS011;22054;51.646;7.078;2023-07-16T13:01:24;2.80;;;2.70;;
35612;SDS011;22054;51.646;7.078;2023-07-16T13:03:50;4.60;;;4.40;;
35612;SDS011;22054;51.646;7.078;2023-07-16T13:06:16;1.30;;;1.30;;
35612;SDS011;22054;51.646;7.078;2023-07-16T13:08:42;0.40;;;0.40;;
35612;SDS011;22054;51.646;7.078;2023-07-16T13:11:07;0.00;;;0.00;;
35612;SDS011;22054;51.646;7.078;2023-07-16T13:13:33;5.10;;;4.90;;
35612;SDS011;22054;51.646;7.078;2023-07-16T13:16:00;4.88;;;4.68;;
35612;SDS011;22054;51.646;7.078;2023-07-16T13:18:26;4.80;;;4.60;;
35612;SDS011;22054;51.646;7.078;2023-07-16T13:20:51;5.13;;;4.93;;
35612;SDS011;22054;51.646;7.078;2023-07-16T13:23:17;5.38;;;5.18;;
35612;SDS011;22054;51.646;7.078;2023-07-16T13:25:43;5.10;;;4.90;;
35612;SDS011;22054;51.646;7.078;2023-07-16T13:28:09;5.38;;;5.18;;
35612;SDS011;22054;51.646;7.078;2023-07-16T13:30:35;4.72;;;4.53;;
35612;SDS011;22054;51.646;7.078;2023-07-16T13:33:01;4.70;;;4.50;;
35612;SDS011;22054;51.646;7.078;2023-07-16T13:35:27;4.90;;;4.70;;
35612;SDS011;22054;51.646;7.078;2023-07-16T13:37:52;5.30;;;5.10;;
35612;SDS011;22054;51.646;7.078;2023-07-16T13:40:18;4.90;;;4.70;;
35612;SDS011;22054;51.646;7.078;2023-07-16T13:42:46;5.05;;;4.85;;
35612;SDS011;22054;51.646;7.078;2023-07-16T13:45:13;5.53;;;5.32;;
35612;SDS011;22054;51.646;7.078;2023-07-16T13:47:39;5.35;;;5.15;;
35612;SDS011;22054;51.646;7.078;2023-07-16T13:50:05;5.80;;;5.60;;
35612;SDS011;22054;51.646;7.078;2023-07-16T13:52:31;5.90;;;5.70;;
35612;SDS011;22054;51.646;7.078;2023-07-16T13:54:58;5.82;;;5.63;;
35612;SDS011;22054;51.646;7.078;2023-07-16T13:57:24;6.00;;;5.80;;
35612;SDS011;22054;51.646;7.078;2023-07-16T13:59:50;5.75;;;5.55;;
35612;SDS011;22054;51.646;7.078;2023-07-16T14:02:16;6.05;;;5.85;;
35612;SDS011;22054;51.646;7.078;2023-07-16T14:04:42;5.65;;;5.45;;
35612;SDS011;22054;51.646;7.078;2023-07-16T14:07:07;5.65;;;5.45;;
35612;SDS011;22054;51.646;7.078;2023-07-16T14:09:33;5.40;;;5.20;;
35612;SDS011;22054;51.646;7.078;2023-07-16T14:11:59;5.82;;;5.63;;
35612;SDS011;22054;51.646;7.078;2023-07-16T14:14:25;5.65;;;5.45;;
35612;SDS011;22054;51.646;7.078;2023-07-16T14:16:51;5.68;;;5.47;;
35612;SDS011;22054;51.646;7.078;2023-07-16T14:19:17;5.80;;;5.60;;
35612;SDS011;22054;51.646;7.078;2023-07-16T14:21:42;5.38;;;5.18;;
35612;SDS011;22054;51.646;7.078;2023-07-16T14:24:08;5.47;;;5.28;;
35612;SDS011;22054;51.646;7.078;2023-07-16T14:26:34;5.65;;;5.45;;
35612;SDS011;22054;51.646;7.078;2023-07-16T14:29:00;5.60;;;5.40;;
35612;SDS011;22054;51.646;7.078;2023-07-16T14:31:26;5.40;;;5.20;;
35612;SDS011;22054;51.646;7.078;2023-07-16T14:33:52;5.43;;;5.22;;
35612;SDS011;22054;51.646;7.078;2023-07-16T14:36:18;5.45;;;5.25;;
35612;SDS011;22054;51.646;7.078;2023-07-16T14:38:44;4.90;;;4.70;;
35612;SDS011;22054;51.646;7.078;2023-07-16T14:41:10;5.18;;;4.97;;
35612;SDS011;22054;51.646;7.078;2023-07-16T14:43:36;5.10;;;4.90;;
35612;SDS011;22054;51.646;7.078;2023-07-16T14:46:02;5.40;;;5.20;;
35612;SDS011;22054;51.646;7.078;2023-07-16T14:48:28;5.30;;;5.10;;
35612;SDS011;22054;51.646;7.078;2023-07-16T14:50:57;5.20;;;5.00;;
35612;SDS011;22054;51.646;7.078;2023-07-16T14:53:23;5.20;;;5.00;;
35612;SDS011;22054;51.646;7.078;2023-07-16T14:55:50;5.47;;;5.28;;
35612;SDS011;22054;51.646;7.078;2023-07-16T14:58:20;5.60;;;5.40;;
35612;SDS011;22054;51.646;7.078;2023-07-16T15:00:47;5.68;;;5.47;;